createdAt,value
2022-11-29T00:01:20.532Z,4.4
2022-11-29T00:06:33.384Z,4.38
2022-11-29T00:11:45.876Z,4.38
2022-11-29T00:16:58.544Z,4.37
2022-11-29T00:22:10.891Z,4.37
2022-11-29T00:27:23.074Z,4.36
2022-11-29T00:32:35.478Z,4.35
2022-11-29T00:37:48.556Z,4.36
2022-11-29T00:43:00.856Z,4.38
2022-11-29T00:48:13.076Z,4.36
2022-11-29T00:53:25.835Z,4.37
2022-11-29T00:58:38.548Z,4.35
2022-11-29T01:03:50.876Z,4.38
2022-11-29T01:09:03.707Z,4.41
2022-11-29T01:14:16.302Z,4.44
2022-11-29T01:19:28.849Z,4.44
2022-11-29T01:24:47.759Z,4.4
2022-11-29T01:30:11.905Z,4.4
2022-11-29T01:35:24.207Z,4.41
2022-11-29T01:40:36.402Z,4.36
2022-11-29T01:45:48.729Z,4.33
2022-11-29T01:51:00.972Z,4.35
2022-11-29T01:56:13.401Z,4.36
2022-11-29T02:01:25.953Z,4.36
2022-11-29T02:06:37.987Z,4.34
2022-11-29T02:11:50.408Z,4.37
2022-11-29T02:17:02.837Z,4.4
2022-11-29T02:22:15.037Z,4.4
2022-11-29T02:27:27.302Z,4.42
2022-11-29T02:32:39.693Z,4.41
2022-11-29T02:37:52.016Z,4.4
2022-11-29T02:43:04.377Z,4.39
2022-11-29T02:48:16.663Z,4.41
2022-11-29T02:53:29.209Z,4.45
2022-11-29T02:58:41.447Z,4.47
2022-11-29T03:03:54.586Z,4.5
2022-11-29T03:09:06.897Z,4.54
2022-11-29T03:14:19.437Z,4.59
2022-11-29T03:19:31.741Z,4.62
2022-11-29T03:24:44.187Z,4.61
2022-11-29T03:29:56.433Z,4.59
2022-11-29T03:35:09.536Z,4.5
2022-11-29T03:40:22.065Z,4.44
2022-11-29T03:45:34.421Z,4.45
2022-11-29T03:50:46.455Z,4.44
2022-11-29T03:55:58.818Z,4.45
2022-11-29T04:01:11.037Z,4.48
2022-11-29T04:06:23.580Z,4.47
2022-11-29T04:11:36.001Z,4.45
2022-11-29T04:16:48.439Z,4.38
2022-11-29T04:22:00.749Z,4.38
2022-11-29T04:27:12.870Z,4.34
2022-11-29T04:32:25.231Z,4.36
2022-11-29T04:37:37.520Z,4.37
2022-11-29T04:42:49.945Z,4.35
2022-11-29T04:48:02.238Z,4.36
2022-11-29T04:53:14.838Z,4.34
2022-11-29T04:58:27.314Z,4.32
2022-11-29T05:03:39.675Z,4.31
2022-11-29T05:08:51.865Z,4.32
2022-11-29T05:14:04.386Z,4.31
2022-11-29T05:19:16.841Z,4.3
2022-11-29T05:24:29.455Z,4.32
2022-11-29T05:29:42.094Z,4.34
2022-11-29T05:34:54.539Z,4.35
2022-11-29T05:40:06.740Z,4.36
2022-11-29T05:45:19.050Z,4.37
2022-11-29T05:50:31.251Z,4.36
2022-11-29T05:55:43.381Z,4.34
2022-11-29T06:00:55.488Z,4.34
2022-11-29T06:06:07.943Z,4.37
2022-11-29T06:11:20.208Z,4.37
2022-11-29T06:16:32.626Z,4.44
2022-11-29T06:21:45.003Z,4.47
2022-11-29T06:26:57.300Z,4.49
2022-11-29T06:32:09.646Z,4.49
2022-11-29T06:37:21.991Z,4.49
2022-11-29T06:42:34.389Z,4.49
2022-11-29T06:47:46.599Z,4.46
2022-11-29T06:52:59.170Z,4.47
2022-11-29T06:58:11.427Z,4.42
2022-11-29T07:03:23.918Z,4.44
2022-11-29T07:08:36.276Z,4.46
2022-11-29T07:13:48.746Z,4.43
2022-11-29T07:19:01.007Z,4.44
2022-11-29T07:24:13.301Z,4.47
2022-11-29T07:29:25.713Z,4.49
2022-11-29T07:34:38.019Z,4.48
2022-11-29T07:39:56.111Z,4.54
2022-11-29T07:45:08.519Z,4.57
2022-11-29T07:50:20.739Z,4.61
2022-11-29T07:55:33.041Z,4.66
2022-11-29T08:00:45.420Z,4.69
2022-11-29T08:05:57.695Z,4.77
2022-11-29T08:16:22.390Z,4.89
2022-11-29T08:21:34.585Z,4.94
2022-11-29T08:26:46.825Z,4.97
2022-11-29T08:31:59.396Z,4.96
2022-11-29T08:37:11.556Z,4.87
2022-11-29T08:42:24.084Z,4.9
2022-11-29T08:47:36.263Z,4.97
2022-11-29T08:52:48.607Z,5.01
2022-11-29T08:58:01.114Z,5
2022-11-29T09:03:13.713Z,4.99
2022-11-29T09:08:25.791Z,5.01
2022-11-29T09:13:38.436Z,5.07
2022-11-29T09:18:52.007Z,5.14
2022-11-29T09:24:03.206Z,5.15
2022-11-29T09:29:15.442Z,5.23
2022-11-29T09:34:27.741Z,5.25
2022-11-29T09:39:39.918Z,5.23
2022-11-29T09:44:52.264Z,5.29
2022-11-29T09:50:04.560Z,5.37
2022-11-29T10:00:29.215Z,5.56
2022-11-29T10:05:41.560Z,5.61
2022-11-29T10:10:53.965Z,5.65
2022-11-29T10:16:06.202Z,5.65
2022-11-29T10:26:35.090Z,5.68
2022-11-29T10:31:43.372Z,5.74
2022-11-29T10:36:56.013Z,5.75
2022-11-29T10:42:08.442Z,5.74
2022-11-29T10:52:33.168Z,5.84
2022-11-29T10:57:45.515Z,5.85
2022-11-29T11:02:57.819Z,5.78
2022-11-29T11:08:10.235Z,5.74
2022-11-29T11:13:22.785Z,5.72
2022-11-29T11:18:34.965Z,5.7
2022-11-29T11:23:47.283Z,5.76
2022-11-29T11:28:59.881Z,5.81
2022-11-29T11:34:12.096Z,5.83
2022-11-29T11:39:24.599Z,5.92
2022-11-29T11:44:52.279Z,5.97
2022-11-29T11:49:49.350Z,6.03
2022-11-29T11:55:01.908Z,6.03
2022-11-29T12:00:14.254Z,6.01
2022-11-29T12:05:26.633Z,6.03
2022-11-29T12:10:39.054Z,6.08
2022-11-29T12:15:54.410Z,6.17
2022-11-29T12:21:06.928Z,6.14
2022-11-29T12:26:48.772Z,6.06
2022-11-29T12:31:31.679Z,6.06
2022-11-29T12:36:44.152Z,6.03
2022-11-29T12:41:56.493Z,6.07
2022-11-29T12:47:37.501Z,6.07
2022-11-29T12:52:21.342Z,6.14
2022-11-29T12:57:33.551Z,6.09
2022-11-29T13:02:46.251Z,6.06
2022-11-29T13:07:58.670Z,6.03
2022-11-29T13:13:10.976Z,5.99
2022-11-29T13:18:23.372Z,5.96
2022-11-29T13:23:39.324Z,5.95
2022-11-29T13:28:48.395Z,5.94
2022-11-29T13:34:00.741Z,5.96
2022-11-29T13:39:12.953Z,5.96
2022-11-29T13:44:25.694Z,5.95
2022-11-29T13:49:38.044Z,5.94
2022-11-29T13:54:50.527Z,5.96
2022-11-29T14:00:02.890Z,5.94
2022-11-29T14:05:18.882Z,5.88
2022-11-29T14:10:31.360Z,5.84
2022-11-29T14:16:02.688Z,5.82
2022-11-29T14:21:15.305Z,5.87
2022-11-29T14:26:28.695Z,5.82
2022-11-29T14:31:40.136Z,5.81
2022-11-29T14:36:52.566Z,5.84
2022-11-29T14:42:04.790Z,5.83
2022-11-29T14:47:17.016Z,5.88
2022-11-29T14:52:29.468Z,5.83
2022-11-29T14:57:41.713Z,5.82
2022-11-29T15:02:54.183Z,5.79
2022-11-29T15:08:06.595Z,5.78
2022-11-29T15:13:19.050Z,5.77
2022-11-29T15:18:31.435Z,5.76
2022-11-29T15:23:43.904Z,5.73
2022-11-29T15:29:20.574Z,5.76
2022-11-29T15:34:33.193Z,5.77
2022-11-29T15:39:45.325Z,5.67
2022-11-29T15:45:08.451Z,5.65
2022-11-29T15:50:20.908Z,5.66
2022-11-29T15:55:33.032Z,5.59
2022-11-29T16:00:45.273Z,5.54
2022-11-29T16:05:57.576Z,5.57
2022-11-29T16:11:09.898Z,5.57
2022-11-29T16:16:22.306Z,5.54
2022-11-29T16:21:35.070Z,5.55
2022-11-29T16:54:16.328Z,5.49
2022-11-29T16:59:28.725Z,5.46
2022-11-29T17:04:41.021Z,5.45
2022-11-29T17:09:53.751Z,5.41
2022-11-29T17:15:06.008Z,5.41
2022-11-29T17:20:18.370Z,5.39
2022-11-29T17:25:30.757Z,5.37
2022-11-29T17:30:43.189Z,5.37
2022-11-29T17:35:55.467Z,5.38
2022-11-29T17:41:07.697Z,5.41
2022-11-29T17:46:20.013Z,5.41
2022-11-29T17:56:44.833Z,5.44
2022-11-29T18:01:57.194Z,5.42
2022-11-29T18:07:09.608Z,5.45
2022-11-29T18:12:22.248Z,5.48
2022-11-29T18:17:34.337Z,5.52
2022-11-29T18:22:46.552Z,5.53
2022-11-29T18:27:59.029Z,5.55
2022-11-29T18:33:14.514Z,5.57
2022-11-29T18:38:26.823Z,5.59
2022-11-29T18:43:40.249Z,5.65
2022-11-29T18:48:51.777Z,5.66
2022-11-29T18:54:04.195Z,5.67
2022-11-29T18:59:16.662Z,5.64
2022-11-29T19:04:37.745Z,5.63
2022-11-29T19:09:50.284Z,5.64
2022-11-29T19:15:02.740Z,5.62
2022-11-29T19:20:15.095Z,5.64
2022-11-29T19:30:40.197Z,5.67
2022-11-29T19:35:52.213Z,5.65
2022-11-29T19:46:17.118Z,5.65
2022-11-29T19:51:29.368Z,5.67
2022-11-29T19:56:41.579Z,5.68
2022-11-29T20:01:53.957Z,5.69
2022-11-29T20:07:06.217Z,5.67
2022-11-29T20:12:18.753Z,5.68
2022-11-29T20:17:30.888Z,5.65
2022-11-29T20:22:43.234Z,5.65
2022-11-29T20:27:55.532Z,5.63
2022-11-29T20:33:07.833Z,5.66
2022-11-29T20:38:20.186Z,5.68
2022-11-29T20:43:32.498Z,5.68
2022-11-29T20:48:44.711Z,5.69
2022-11-29T20:53:57.355Z,5.64
2022-11-29T20:59:09.459Z,5.68
2022-11-29T21:04:23.634Z,5.67
2022-11-29T21:09:34.010Z,5.67
2022-11-29T21:14:46.488Z,5.67
2022-11-29T21:19:59.294Z,5.65
2022-11-29T21:25:11.577Z,5.64
2022-11-29T21:30:23.932Z,5.62
2022-11-29T21:35:36.255Z,5.62
2022-11-29T21:40:48.582Z,5.61
2022-11-29T21:46:00.767Z,5.59
2022-11-29T21:51:13.131Z,5.62
2022-11-29T21:56:25.332Z,5.57
2022-11-29T22:01:37.689Z,5.59
2022-11-29T22:06:50.009Z,5.59
2022-11-29T22:12:14.783Z,5.54
2022-11-29T22:17:14.485Z,5.56
2022-11-29T22:22:28.160Z,5.54
2022-11-29T22:27:39.070Z,5.55
2022-11-29T22:32:51.397Z,5.57
2022-11-29T22:38:03.618Z,5.57
2022-11-29T22:43:16.110Z,5.56
2022-11-29T22:48:29.980Z,5.5
2022-11-29T22:53:41.525Z,5.46
2022-11-29T22:58:53.720Z,5.48
2022-11-29T23:04:06.150Z,5.47
2022-11-29T23:09:18.501Z,5.44
2022-11-29T23:14:31.014Z,5.41
2022-11-29T23:19:43.743Z,5.44
2022-11-29T23:24:56.294Z,5.44
2022-11-29T23:30:08.596Z,5.49
2022-11-29T23:35:21.015Z,5.5
2022-11-29T23:40:33.565Z,5.47
2022-11-29T23:45:45.614Z,5.44
2022-11-29T23:50:57.984Z,5.44
2022-11-29T23:56:10.394Z,5.4
